Time;durP1;ratioP1;P1;durP2;ratioP2;P2;SDS_P1;SDS_P2;PMS_P1;PMS_P2;Temp;Humidity;BMP_temperature;BMP_pressure;BME280_temperature;BME280_humidity;BME280_pressure;Samples;Min_cycle;Max_cycle;Signal;HPM_P1;HPM_P2
2024/04/16 00:00:16;;;;;;;3.08;2.00;;;;;;;3.67;100.00;97187.38;6104529;19;20011;-74
2024/04/16 00:02:17;;;;;;;6.13;2.13;;;;;;;3.62;100.00;97189.59;6106467;19;20115;-75
2024/04/16 00:04:17;;;;;;;3.40;2.00;;;;;;;3.64;100.00;97173.59;6108505;19;20034;-75
2024/04/16 00:06:17;;;;;;;3.42;1.88;;;;;;;3.60;100.00;97186.44;6109116;19;20340;-75
2024/04/16 00:08:17;;;;;;;3.55;1.92;;;;;;;3.74;100.00;97172.25;6105554;19;20019;-75
2024/04/16 00:10:18;;;;;;;3.88;1.90;;;;;;;3.79;100.00;97172.69;6105407;19;20013;-75
2024/04/16 00:12:18;;;;;;;5.07;2.28;;;;;;;3.89;100.00;97168.59;6108083;19;20013;-76
2024/04/16 00:14:18;;;;;;;4.80;2.10;;;;;;;3.88;100.00;97158.78;6107704;19;20006;-75
2024/04/16 00:16:19;;;;;;;2.80;1.90;;;;;;;3.82;100.00;97157.53;6106597;19;20063;-75
2024/04/16 00:18:19;;;;;;;3.60;1.95;;;;;;;3.83;100.00;97150.88;6108303;19;19995;-75
2024/04/16 00:20:19;;;;;;;2.75;1.90;;;;;;;3.84;100.00;97144.25;6105867;19;20003;-74
2024/04/16 00:22:20;;;;;;;2.53;1.90;;;;;;;3.88;100.00;97134.94;6108012;19;20014;-75
2024/04/16 00:24:20;;;;;;;3.90;1.77;;;;;;;3.93;100.00;97137.38;6106567;19;20026;-75
2024/04/16 00:26:20;;;;;;;3.58;1.80;;;;;;;3.95;100.00;97128.78;6107324;19;21097;-75
2024/04/16 00:28:21;;;;;;;1.75;1.48;;;;;;;4.02;100.00;97122.66;6105291;19;20033;-75
2024/04/16 00:30:21;;;;;;;4.47;2.00;;;;;;;4.02;100.00;97117.97;6107554;19;20018;-75
2024/04/16 00:32:22;;;;;;;2.17;1.52;;;;;;;4.01;100.00;97124.59;6108038;19;20018;-75
2024/04/16 00:34:22;;;;;;;3.35;1.60;;;;;;;4.02;100.00;97119.91;6106701;19;20482;-75
2024/04/16 00:36:22;;;;;;;6.13;1.70;;;;;;;4.00;100.00;97105.81;6108372;19;20044;-74
2024/04/16 00:38:23;;;;;;;3.38;1.50;;;;;;;4.09;100.00;97098.13;6108118;19;20362;-75
2024/04/16 00:40:23;;;;;;;2.92;1.50;;;;;;;4.07;100.00;97097.72;6099421;19;20010;-75
2024/04/16 00:42:23;;;;;;;4.55;1.80;;;;;;;4.07;100.00;97097.72;6101211;19;20401;-75
2024/04/16 00:44:24;;;;;;;2.47;1.63;;;;;;;4.09;100.00;97106.34;6100882;19;20013;-74
2024/04/16 00:46:24;;;;;;;2.03;1.50;;;;;;;4.05;100.00;97113.69;6101656;19;20070;-75
2024/04/16 00:48:26;;;;;;;3.33;1.63;;;;;;;4.04;100.00;97112.91;6098098;19;20034;-75
2024/04/16 00:50:27;;;;;;;5.53;1.73;;;;;;;4.01;100.00;97123.81;6097178;19;20017;-76
2024/04/16 00:52:27;;;;;;;3.65;1.60;;;;;;;4.06;100.00;97113.34;6097909;19;20007;-75
2024/04/16 00:54:28;;;;;;;2.65;1.70;;;;;;;4.06;100.00;97123.50;6101468;19;20299;-75
2024/04/16 00:56:28;;;;;;;2.95;1.58;;;;;;;4.08;100.00;97119.22;6100687;19;20007;-74
2024/04/16 00:58:32;;;;;;;2.35;1.65;;;;;;;4.10;100.00;97121.59;6100241;19;20475;-74
2024/04/16 01:00:32;;;;;;;2.90;1.83;;;;;;;4.13;100.00;97121.63;6099664;19;20595;-74
2024/04/16 01:02:33;;;;;;;2.58;1.88;;;;;;;4.15;100.00;97122.06;6100001;19;20026;-75
2024/04/16 01:04:33;;;;;;;4.90;2.05;;;;;;;4.16;100.00;97134.59;6101243;19;20318;-75
2024/04/16 01:06:35;;;;;;;2.47;1.60;;;;;;;4.21;100.00;97130.75;6100867;19;20368;-75
2024/04/16 01:08:36;;;;;;;3.25;1.77;;;;;;;4.21;100.00;97131.53;6099330;19;20017;-75
2024/04/16 01:10:40;;;;;;;3.17;2.35;;;;;;;4.25;100.00;97128.88;6097201;19;20003;-76
2024/04/16 01:12:43;;;;;;;3.88;1.90;;;;;;;4.23;100.00;97142.94;6097780;19;20384;-75
2024/04/16 01:14:43;;;;;;;3.97;2.20;;;;;;;4.31;100.00;97129.34;6100610;19;20015;-75
2024/04/16 01:16:44;;;;;;;5.43;2.00;;;;;;;4.33;100.00;97133.28;6098448;19;20023;-76
2024/04/16 01:18:44;;;;;;;4.60;2.10;;;;;;;4.35;100.00;97130.97;6099940;19;20242;-75
2024/04/16 01:20:45;;;;;;;3.10;2.10;;;;;;;4.33;100.00;97125.06;6098640;19;19999;-75
2024/04/16 01:22:50;;;;;;;5.18;2.58;;;;;;;4.31;100.00;97134.81;6099477;19;20518;-75
2024/04/16 01:24:51;;;;;;;2.55;1.92;;;;;;;4.29;100.00;97129.69;6100804;19;20003;-75
2024/04/16 01:26:51;;;;;;;6.10;2.72;;;;;;;4.29;100.00;97123.44;6100730;19;20021;-75
2024/04/16 01:28:52;;;;;;;2.70;2.17;;;;;;;4.30;100.00;97122.25;6097247;19;20396;-75
2024/04/16 01:30:52;;;;;;;4.32;2.00;;;;;;;4.25;100.00;97119.88;6099539;19;20219;-75
2024/04/16 01:32:52;;;;;;;2.90;2.00;;;;;;;4.26;100.00;97110.50;6100233;19;20003;-76
2024/04/16 01:34:53;;;;;;;3.85;2.20;;;;;;;4.21;100.00;97108.84;6099968;19;20010;-75
2024/04/16 01:36:53;;;;;;;2.63;2.17;;;;;;;4.18;100.00;97113.13;6100288;19;20509;-76
2024/04/16 01:38:53;;;;;;;4.10;2.63;;;;;;;4.26;100.00;97113.22;6099787;19;20256;-75
2024/04/16 01:40:54;;;;;;;5.82;2.30;;;;;;;4.17;100.00;97110.75;6103080;19;20010;-76
2024/04/16 01:42:54;;;;;;;5.28;2.30;;;;;;;4.16;100.00;97104.50;6107529;19;20018;-75
2024/04/16 01:44:58;;;;;;;4.47;2.00;;;;;;;4.24;100.00;97099.91;6106082;19;20010;-75
2024/04/16 01:46:59;;;;;;;4.63;2.30;;;;;;;4.16;100.00;97100.97;6105547;19;20011;-76
2024/04/16 01:48:59;;;;;;;2.78;2.10;;;;;;;4.14;100.00;97098.59;6106337;19;20328;-75
2024/04/16 01:50:59;;;;;;;4.05;2.22;;;;;;;4.16;100.00;97090.03;6104224;19;20017;-75
2024/04/16 01:53:00;;;;;;;5.50;2.08;;;;;;;4.11;100.00;97085.63;6106822;19;20011;-75
2024/04/16 01:55:00;;;;;;;3.45;2.25;;;;;;;4.09;100.00;97089.91;6107658;19;20007;-76
2024/04/16 01:57:02;;;;;;;5.90;1.83;;;;;;;4.13;100.00;97088.78;6106586;19;20011;-75
2024/04/16 01:59:02;;;;;;;4.65;2.25;;;;;;;4.18;100.00;97066.56;6105029;19;20010;-75
2024/04/16 02:01:02;;;;;;;3.83;2.33;;;;;;;4.09;100.00;97068.81;6105888;19;20015;-75
2024/04/16 02:03:03;;;;;;;4.78;2.28;;;;;;;4.07;100.00;97075.81;6109388;19;20018;-76
2024/04/16 02:05:04;;;;;;;4.00;2.20;;;;;;;3.99;100.00;97074.13;6112781;19;20074;-75
2024/04/16 02:07:04;;;;;;;4.78;2.22;;;;;;;3.99;100.00;97074.91;6112869;19;20006;-75
2024/04/16 02:09:05;;;;;;;3.25;2.10;;;;;;;3.95;100.00;97066.63;6111985;19;20017;-76
2024/04/16 02:11:05;;;;;;;6.10;2.13;;;;;;;4.03;100.00;97074.97;6109453;19;20027;-76
2024/04/16 02:13:06;;;;;;;8.52;2.33;;;;;;;4.00;100.00;97073.75;6113028;19;20010;-75
2024/04/16 02:15:06;;;;;;;6.47;2.30;;;;;;;3.96;100.00;97081.09;6111904;19;20348;-76
2024/04/16 02:17:07;;;;;;;3.28;2.05;;;;;;;3.99;100.00;97080.38;6112773;19;20014;-76
2024/04/16 02:19:07;;;;;;;3.88;2.28;;;;;;;3.99;100.00;97077.66;6111960;19;20014;-75
2024/04/16 02:21:08;;;;;;;3.45;2.10;;;;;;;4.02;100.00;97079.63;6111039;19;20040;-76
2024/04/16 02:23:08;;;;;;;4.70;2.00;;;;;;;4.07;100.00;97073.88;6110501;19;20613;-75
2024/04/16 02:25:10;;;;;;;3.65;2.00;;;;;;;4.05;100.00;97054.25;6113161;19;20287;-75
2024/04/16 02:27:10;;;;;;;3.95;2.03;;;;;;;4.08;100.00;97052.75;6111637;19;20018;-75
2024/04/16 02:29:10;;;;;;;3.45;1.92;;;;;;;4.09;100.00;97055.13;6111625;19;20474;-75
2024/04/16 02:31:11;;;;;;;4.38;1.83;;;;;;;4.15;100.00;97052.84;6107800;19;20021;-75
2024/04/16 02:33:14;;;;;;;4.63;2.08;;;;;;;4.13;100.00;97055.94;6112786;19;20034;-75
2024/04/16 02:35:14;;;;;;;3.03;2.13;;;;;;;4.17;100.00;97065.00;6110866;19;19998;-76
2024/04/16 02:37:15;;;;;;;5.60;2.08;;;;;;;4.15;100.00;97053.66;6112537;19;20006;-75
2024/04/16 02:39:16;;;;;;;5.05;2.15;;;;;;;4.08;100.00;97060.97;6110835;19;20175;-77
2024/04/16 02:41:17;;;;;;;6.50;2.30;;;;;;;4.07;100.00;97053.91;6111692;19;20058;-75
2024/04/16 02:43:17;;;;;;;5.18;2.00;;;;;;;4.07;100.00;97062.13;6112071;19;20019;-75
2024/04/16 02:45:17;;;;;;;5.10;2.05;;;;;;;4.07;100.00;97056.66;6110035;19;20011;-75
2024/04/16 02:47:17;;;;;;;3.22;1.90;;;;;;;4.04;100.00;97054.63;6111528;19;19995;-75
2024/04/16 02:49:18;;;;;;;6.85;2.30;;;;;;;4.08;100.00;97047.28;6110930;19;19999;-75
2024/04/16 02:51:18;;;;;;;6.75;2.40;;;;;;;4.10;100.00;97053.16;6109955;19;20005;-75
2024/04/16 02:53:18;;;;;;;3.50;2.45;;;;;;;4.09;100.00;97052.38;6112324;19;20009;-76
2024/04/16 02:55:21;;;;;;;5.90;2.10;;;;;;;4.16;100.00;97051.69;6111740;19;19999;-76
2024/04/16 02:57:22;;;;;;;5.50;2.13;;;;;;;4.18;100.00;97052.09;6112242;19;20014;-75
2024/04/16 02:59:23;;;;;;;4.60;2.13;;;;;;;4.26;100.00;97042.03;6109236;19;20003;-76
2024/04/16 03:01:23;;;;;;;3.40;1.98;;;;;;;4.27;100.00;97040.88;6112366;19;20009;-76
2024/04/16 03:03:23;;;;;;;4.32;2.42;;;;;;;4.29;100.00;97044.81;6111157;19;20006;-75
2024/04/16 03:05:23;;;;;;;3.22;1.70;;;;;;;4.34;100.00;97040.97;6112168;19;20002;-75
2024/04/16 03:07:24;;;;;;;1.98;1.52;;;;;;;4.29;100.00;97044.03;6109199;19;20013;-75
2024/04/16 03:09:24;;;;;;;5.28;2.30;;;;;;;4.32;100.00;97035.88;6109895;19;20015;-75
2024/04/16 03:11:25;;;;;;;4.38;1.88;;;;;;;4.30;100.00;97038.16;6108752;19;20030;-76
2024/04/16 03:13:25;;;;;;;4.13;2.00;;;;;;;4.23;100.00;97036.16;6110935;19;20073;-75
2024/04/16 03:15:26;;;;;;;4.32;2.42;;;;;;;4.25;100.00;97049.47;6109273;19;20394;-75
2024/04/16 03:17:26;;;;;;;3.03;2.15;;;;;;;4.27;100.00;97058.09;6108981;19;20082;-77
2024/04/16 03:19:27;;;;;;;3.00;1.75;;;;;;;4.37;100.00;97054.69;6108477;19;20074;-76
2024/04/16 03:21:27;;;;;;;7.10;2.20;;;;;;;4.38;100.00;97050.78;6111481;19;20003;-75
2024/04/16 03:23:28;;;;;;;4.30;1.73;;;;;;;4.42;100.00;97053.59;6109558;19;20023;-75
2024/04/16 03:25:28;;;;;;;3.70;1.75;;;;;;;4.41;100.00;97052.81;6110635;19;20007;-75
2024/04/16 03:27:29;;;;;;;8.15;1.85;;;;;;;4.45;100.00;97050.88;6108715;19;20023;-75
2024/04/16 03:29:29;;;;;;;9.75;1.88;;;;;;;4.40;100.00;97040.28;6108895;19;20410;-75
2024/04/16 03:31:29;;;;;;;5.32;2.00;;;;;;;4.38;100.00;97044.53;6107805;19;20011;-75
2024/04/16 03:33:31;;;;;;;6.03;2.10;;;;;;;4.44;100.00;97040.31;6110775;19;20490;-75
2024/04/16 03:35:32;;;;;;;3.85;1.63;;;;;;;4.37;100.00;97041.00;6110713;19;20074;-75
2024/04/16 03:37:32;;;;;;;4.55;2.03;;;;;;;4.33;100.00;97044.88;6109416;19;20010;-75
2024/04/16 03:39:32;;;;;;;5.90;1.77;;;;;;;4.34;100.00;97043.72;6108766;19;20011;-75
2024/04/16 03:41:33;;;;;;;5.90;1.80;;;;;;;4.33;100.00;97036.66;6110976;19;20003;-75
2024/04/16 03:43:33;;;;;;;2.88;1.60;;;;;;;4.27;100.00;97035.41;6110507;19;19998;-76
2024/04/16 03:45:33;;;;;;;4.63;2.08;;;;;;;4.31;100.00;97039.78;6108796;19;20430;-76
2024/04/16 03:47:34;;;;;;;3.85;1.90;;;;;;;4.30;100.00;97043.66;6108178;19;20029;-76
2024/04/16 03:49:34;;;;;;;2.40;1.45;;;;;;;4.21;100.00;97030.25;6106747;19;20066;-75
2024/04/16 03:51:34;;;;;;;4.38;1.63;;;;;;;4.15;100.00;97020.00;6109517;19;20022;-75
2024/04/16 03:53:34;;;;;;;1.88;1.50;;;;;;;4.20;100.00;97025.13;6109899;19;20320;-77
2024/04/16 03:55:38;;;;;;;4.65;1.92;;;;;;;4.19;100.00;97023.56;6110363;19;19999;-75
2024/04/16 03:57:38;;;;;;;1.75;1.50;;;;;;;4.08;100.00;97023.44;6109403;19;20030;-75
2024/04/16 04:00:59;;;;;;;3.28;1.55;;;;;;;4.06;100.00;97031.22;6105986;19;19998;-75
2024/04/16 04:01:58;;;;;;;5.05;1.95;;;;;;;3.95;100.00;97033.00;6109663;19;20473;-75
2024/04/16 04:03:59;;;;;;;4.00;1.77;;;;;;;3.86;100.00;97033.28;6107491;19;20010;-76
2024/04/16 04:06:00;;;;;;;3.72;1.63;;;;;;;3.87;100.00;97037.59;6109228;19;20031;-76
2024/04/16 04:08:00;;;;;;;2.65;1.80;;;;;;;3.92;100.00;97026.34;6107621;19;20014;-76
2024/04/16 04:10:00;;;;;;;5.20;2.30;;;;;;;3.85;100.00;97039.13;6106634;19;20010;-75
2024/04/16 04:12:01;;;;;;;4.70;1.80;;;;;;;3.81;100.00;97041.03;6107313;19;20574;-76
2024/04/16 04:14:01;;;;;;;5.38;1.90;;;;;;;3.76;100.00;97024.94;6107789;19;20466;-75
2024/04/16 04:16:01;;;;;;;2.58;1.70;;;;;;;3.77;100.00;97029.25;6108202;19;20006;-75
2024/04/16 04:18:02;;;;;;;2.83;1.88;;;;;;;3.81;100.00;97028.16;6106088;19;20002;-75
2024/04/16 04:20:03;;;;;;;2.78;1.85;;;;;;;3.76;100.00;97025.72;6105900;19;20086;-75
2024/04/16 04:22:04;;;;;;;6.13;1.80;;;;;;;3.73;100.00;97026.47;6108160;19;20546;-76
2024/04/16 04:24:05;;;;;;;5.18;1.70;;;;;;;3.75;100.00;97023.34;6107051;19;20013;-77
2024/04/16 04:26:06;;;;;;;3.75;1.50;;;;;;;3.78;100.00;97028.06;6106278;19;20003;-76
2024/04/16 04:28:06;;;;;;;4.88;1.58;;;;;;;3.76;100.00;97036.66;6105461;19;19999;-75
2024/04/16 04:30:09;;;;;;;4.25;1.70;;;;;;;3.78;100.00;97030.81;6107188;19;20380;-75
2024/04/16 04:32:10;;;;;;;3.17;1.77;;;;;;;3.73;100.00;97036.63;6106856;19;20007;-75
2024/04/16 04:34:10;;;;;;;2.42;1.50;;;;;;;3.79;100.00;97041.38;6108287;19;20002;-75
2024/04/16 04:36:11;;;;;;;5.65;1.80;;;;;;;3.75;100.00;97035.09;6106185;19;20107;-76
2024/04/16 04:38:12;;;;;;;5.22;1.85;;;;;;;3.77;100.00;97040.19;6108774;19;20007;-75
2024/04/16 04:40:12;;;;;;;4.65;1.77;;;;;;;3.76;100.00;97055.81;6098458;19;20074;-75
2024/04/16 04:42:12;;;;;;;3.20;1.70;;;;;;;3.88;100.00;97054.78;6108690;19;20127;-76
2024/04/16 04:44:12;;;;;;;11.15;2.95;;;;;;;3.91;100.00;97043.13;6106618;19;20463;-76
2024/04/16 04:46:13;;;;;;;5.10;1.92;;;;;;;4.02;100.00;97059.69;6105921;19;20020;-76
2024/04/16 04:48:13;;;;;;;10.05;2.55;;;;;;;4.11;100.00;97052.00;6105147;19;20006;-76
2024/04/16 04:50:13;;;;;;;6.95;2.92;;;;;;;4.16;100.00;97062.66;6106556;19;20780;-75
2024/04/16 04:52:14;;;;;;;2.85;1.80;;;;;;;4.25;100.00;97063.16;6103503;19;20007;-75
2024/04/16 04:54:14;;;;;;;3.63;1.90;;;;;;;4.29;100.00;97072.19;6104226;19;20010;-76
2024/04/16 04:56:14;;;;;;;5.22;2.17;;;;;;;4.35;100.00;97081.66;6102984;19;20017;-75
2024/04/16 04:58:15;;;;;;;4.00;1.73;;;;;;;4.40;100.00;97083.31;6106715;19;20439;-75
2024/04/16 05:00:15;;;;;;;3.15;1.60;;;;;;;4.44;100.00;97084.13;6103863;19;20034;-75
2024/04/16 05:02:16;;;;;;;5.50;1.63;;;;;;;4.43;100.00;97088.81;6106847;19;20041;-75
2024/04/16 05:04:16;;;;;;;3.15;1.70;;;;;;;4.49;100.00;97092.03;6104446;19;20010;-76
2024/04/16 05:06:17;;;;;;;2.85;1.90;;;;;;;4.46;100.00;97079.84;6105284;19;20054;-76
2024/04/16 05:08:18;;;;;;;7.40;2.17;;;;;;;4.39;100.00;97085.25;6105219;19;20006;-76
2024/04/16 05:10:18;;;;;;;3.45;2.10;;;;;;;4.42;100.00;97078.25;6104059;19;20018;-76
2024/04/16 05:12:18;;;;;;;4.22;1.75;;;;;;;4.41;100.00;97084.88;6106068;19;20013;-76
2024/04/16 05:14:19;;;;;;;6.22;1.90;;;;;;;4.41;100.00;97082.94;6103155;19;20007;-76
2024/04/16 05:16:19;;;;;;;7.00;2.25;;;;;;;4.39;100.00;97065.31;6105883;19;20545;-77
2024/04/16 05:18:20;;;;;;;4.82;1.90;;;;;;;4.47;100.00;97062.28;6105817;19;20014;-76
2024/04/16 05:20:20;;;;;;;8.30;2.25;;;;;;;4.41;100.00;97069.25;6106765;19;20014;-75
2024/04/16 05:22:21;;;;;;;5.35;2.15;;;;;;;4.50;100.00;97058.78;6104806;19;20053;-76
2024/04/16 05:24:21;;;;;;;2.85;1.70;;;;;;;4.57;100.00;97049.09;6107064;19;20412;-75
2024/04/16 05:26:25;;;;;;;10.65;2.05;;;;;;;4.55;100.00;97054.94;6105687;19;20015;-76
2024/04/16 05:28:25;;;;;;;3.08;1.80;;;;;;;4.56;100.00;97042.03;6106165;19;20007;-75
2024/04/16 05:30:25;;;;;;;7.38;2.50;;;;;;;4.61;100.00;97031.50;6102712;19;20375;-75
2024/04/16 05:32:25;;;;;;;5.53;2.10;;;;;;;4.51;100.00;97021.22;6104847;19;20018;-77
2024/04/16 05:34:26;;;;;;;6.47;2.03;;;;;;;4.54;100.00;97006.00;6105355;19;20010;-76
2024/04/16 05:36:26;;;;;;;5.95;1.92;;;;;;;4.55;100.00;97019.34;6106092;19;20028;-76
2024/04/16 05:38:26;;;;;;;6.72;1.65;;;;;;;4.57;100.00;97011.53;6107870;19;20007;-75
2024/04/16 05:40:27;;;;;;;4.68;1.85;;;;;;;4.54;100.00;97020.47;6105619;19;20058;-76
2024/04/16 05:42:27;;;;;;;4.28;1.70;;;;;;;4.57;100.00;97006.03;6102805;19;20279;-76
2024/04/16 05:44:27;;;;;;;3.85;1.83;;;;;;;4.61;100.00;97011.56;6105058;19;20485;-76
2024/04/16 05:46:28;;;;;;;2.65;1.67;;;;;;;4.69;100.00;96994.81;6101746;19;20014;-76
2024/04/16 05:48:28;;;;;;;5.45;1.85;;;;;;;4.74;100.00;96996.44;6104110;19;20334;-76
2024/04/16 05:50:28;;;;;;;4.75;1.92;;;;;;;4.73;100.00;96990.19;6103512;19;20030;-76
2024/04/16 05:52:29;;;;;;;4.05;1.83;;;;;;;4.78;100.00;96991.78;6104392;19;20022;-75
2024/04/16 05:54:30;;;;;;;4.82;1.65;;;;;;;4.83;100.00;96991.44;6104812;19;20206;-76
2024/04/16 05:56:30;;;;;;;2.55;1.70;;;;;;;4.84;100.00;96992.22;6104665;19;20014;-75
2024/04/16 05:58:30;;;;;;;4.93;1.90;;;;;;;4.88;100.00;96980.16;6104110;19;20006;-75
2024/04/16 06:00:30;;;;;;;3.42;2.25;;;;;;;4.94;100.00;96986.06;6103245;19;20053;-76
2024/04/16 06:02:31;;;;;;;3.25;1.67;;;;;;;4.98;100.00;96984.16;6104275;19;20511;-75
2024/04/16 06:04:31;;;;;;;5.07;1.50;;;;;;;4.98;100.00;97008.81;6103440;19;20048;-77
2024/04/16 06:06:31;;;;;;;3.45;1.48;;;;;;;5.01;100.00;96973.22;6104276;19;20002;-75
2024/04/16 06:08:32;;;;;;;3.60;1.80;;;;;;;5.04;100.00;96986.16;6104133;19;20002;-75
2024/04/16 06:10:33;;;;;;;7.40;2.03;;;;;;;5.06;100.00;96985.81;6102927;19;20015;-76
2024/04/16 06:12:33;;;;;;;3.92;1.92;;;;;;;5.10;100.00;96977.59;6102616;19;20013;-75
2024/04/16 06:14:33;;;;;;;4.50;1.70;;;;;;;5.08;100.00;96984.25;6102775;19;20074;-76
2024/04/16 06:16:35;;;;;;;1.55;1.15;;;;;;;5.18;100.00;96993.72;6102664;19;20080;-76
2024/04/16 06:18:35;;;;;;;4.43;1.92;;;;;;;5.26;100.00;96989.09;6101980;19;20024;-76
2024/04/16 06:20:36;;;;;;;3.40;1.70;;;;;;;5.28;100.00;96992.25;6102972;19;20023;-75
2024/04/16 06:22:37;;;;;;;3.08;1.20;;;;;;;5.34;100.00;96979.75;6098335;19;20002;-75
2024/04/16 06:24:37;;;;;;;2.63;1.30;;;;;;;5.27;100.00;96982.44;6100900;19;20002;-75
2024/04/16 06:26:37;;;;;;;4.45;1.50;;;;;;;5.18;100.00;96988.25;6101204;19;20078;-75
2024/04/16 06:28:38;;;;;;;2.85;1.33;;;;;;;5.22;100.00;96993.78;6101395;19;20019;-74
2024/04/16 06:30:38;;;;;;;3.22;1.40;;;;;;;5.16;100.00;96993.31;6103352;19;20013;-75
2024/04/16 06:32:38;;;;;;;4.82;1.63;;;;;;;5.08;100.00;96995.22;6104472;19;20499;-75
2024/04/16 06:34:39;;;;;;;3.22;1.55;;;;;;;5.13;100.00;97001.50;6100715;19;20014;-75
2024/04/16 06:36:39;;;;;;;6.80;1.30;;;;;;;5.23;100.00;97018.06;6101261;19;20023;-75
2024/04/16 06:38:40;;;;;;;3.42;1.20;;;;;;;5.34;100.00;97015.41;6100799;19;20074;-75
2024/04/16 06:40:40;;;;;;;6.82;1.50;;;;;;;5.37;100.00;97006.41;6105959;19;20401;-75
2024/04/16 06:42:40;;;;;;;3.08;1.83;;;;;;;5.44;100.00;97006.47;6104871;19;21126;-77
2024/04/16 06:44:40;;;;;;;3.33;1.80;;;;;;;5.61;100.00;97026.97;6106303;19;20006;-76
2024/04/16 06:46:41;;;;;;;3.67;1.73;;;;;;;5.79;100.00;97033.41;6105726;19;20019;-75
2024/04/16 06:48:41;;;;;;;5.05;2.08;;;;;;;5.83;100.00;97025.19;6100447;19;20535;-75
2024/04/16 06:50:48;;;;;;;4.50;1.83;;;;;;;5.86;100.00;97027.16;6097767;19;20021;-76
2024/04/16 06:52:48;;;;;;;5.25;1.75;;;;;;;5.89;100.00;97021.72;6102665;19;20010;-75
2024/04/16 06:54:50;;;;;;;8.05;1.90;;;;;;;5.80;100.00;97034.19;6101052;19;20557;-76
2024/04/16 06:56:50;;;;;;;6.40;1.60;;;;;;;5.75;100.00;97032.59;6101575;19;20810;-75
2024/04/16 06:58:51;;;;;;;4.55;2.17;;;;;;;5.74;100.00;97017.28;6102730;19;20006;-76
2024/04/16 07:00:51;;;;;;;3.55;1.55;;;;;;;5.83;100.00;97016.97;6105448;19;20066;-76
2024/04/16 07:02:51;;;;;;;3.70;1.33;;;;;;;5.82;100.00;97024.41;6106032;19;20098;-76
2024/04/16 07:04:52;;;;;;;6.15;1.67;;;;;;;5.85;100.00;97009.13;6104151;19;20014;-74
2024/04/16 07:06:53;;;;;;;4.35;1.88;;;;;;;5.94;100.00;97012.34;6107384;19;20324;-76
2024/04/16 07:08:54;;;;;;;4.15;1.80;;;;;;;5.99;100.00;97011.22;6103007;19;19999;-76
2024/04/16 07:10:55;;;;;;;2.78;1.45;;;;;;;6.03;100.00;97010.03;6108644;19;20011;-75
2024/04/16 07:12:55;;;;;;;2.38;1.30;;;;;;;6.11;100.00;97013.63;6109912;19;20021;-75
2024/04/16 07:14:55;;;;;;;1.90;1.55;;;;;;;6.19;100.00;97016.00;6108983;19;20018;-75
2024/04/16 07:16:55;;;;;;;3.53;1.30;;;;;;;6.31;100.00;97008.63;6108958;19;20102;-75
2024/04/16 07:18:56;;;;;;;4.07;1.38;;;;;;;6.34;100.00;97016.09;6108747;19;20003;-75
2024/04/16 07:20:56;;;;;;;1.42;0.90;;;;;;;6.36;100.00;97008.25;6109164;19;20014;-76
2024/04/16 07:22:56;;;;;;;3.25;1.50;;;;;;;6.38;100.00;97011.41;6109210;19;20011;-75
2024/04/16 07:24:57;;;;;;;2.17;1.20;;;;;;;6.36;100.00;97006.28;6107879;19;20046;-75
2024/04/16 07:26:57;;;;;;;2.00;1.20;;;;;;;6.26;100.00;97014.47;6109256;19;20383;-75
2024/04/16 07:28:57;;;;;;;2.72;1.50;;;;;;;6.20;100.00;97009.34;6106336;19;20382;-75
2024/04/16 07:30:57;;;;;;;3.33;1.42;;;;;;;6.28;100.00;97015.66;6108631;19;20025;-75
2024/04/16 07:32:58;;;;;;;2.35;1.40;;;;;;;6.29;100.00;97019.19;6110216;19;20014;-75
2024/04/16 07:34:58;;;;;;;1.52;1.20;;;;;;;6.24;100.00;97012.13;6109831;19;20007;-75
2024/04/16 07:36:58;;;;;;;5.07;1.10;;;;;;;6.35;100.00;97031.41;6108757;19;20021;-75
2024/04/16 07:38:59;;;;;;;3.45;1.55;;;;;;;6.39;100.00;97023.97;6109059;19;20258;-75
2024/04/16 07:40:59;;;;;;;4.57;1.40;;;;;;;6.36;100.00;97017.28;6105631;19;20471;-75
2024/04/16 07:43:00;;;;;;;2.33;1.08;;;;;;;6.42;100.00;97037.72;6110185;19;20009;-75
2024/04/16 07:45:00;;;;;;;4.70;1.27;;;;;;;6.37;100.00;97018.88;6109957;19;20010;-75
2024/04/16 07:47:00;;;;;;;2.97;1.10;;;;;;;6.41;100.00;97024.38;6107402;19;20371;-75
2024/04/16 07:49:01;;;;;;;2.53;1.17;;;;;;;6.41;100.00;97025.16;6108435;19;20006;-76
2024/04/16 07:51:01;;;;;;;2.42;0.93;;;;;;;6.46;100.00;97013.81;6108671;19;20003;-76
2024/04/16 07:53:02;;;;;;;5.32;1.35;;;;;;;6.46;100.00;97022.06;6109618;19;20002;-75
2024/04/16 07:55:02;;;;;;;3.60;1.13;;;;;;;6.41;100.00;97016.13;6108210;19;20009;-75
2024/04/16 07:57:03;;;;;;;3.17;0.95;;;;;;;6.34;100.00;97016.88;6108694;19;20014;-75
2024/04/16 07:59:03;;;;;;;4.15;1.10;;;;;;;6.24;100.00;97014.09;6108063;19;20335;-76
2024/04/16 08:01:03;;;;;;;3.40;1.13;;;;;;;6.27;100.00;97016.06;6106863;19;20114;-75
2024/04/16 08:03:04;;;;;;;3.03;1.27;;;;;;;6.31;100.00;97014.13;6108909;19;20055;-75
2024/04/16 08:05:05;;;;;;;1.95;1.10;;;;;;;6.29;100.00;97032.94;6109579;19;20007;-75
2024/04/16 08:07:05;;;;;;;4.00;1.50;;;;;;;6.29;100.00;97008.22;6108711;19;20090;-75
2024/04/16 08:09:06;;;;;;;5.60;1.30;;;;;;;6.32;100.00;97012.94;6108880;19;20015;-75
2024/04/16 08:11:10;;;;;;;2.28;1.20;;;;;;;6.42;100.00;97001.22;6106125;19;20007;-76
2024/04/16 08:13:10;;;;;;;2.65;1.20;;;;;;;6.60;100.00;97018.56;6108854;19;20013;-75
2024/04/16 08:15:11;;;;;;;3.20;1.00;;;;;;;6.73;100.00;96999.75;6106140;19;20078;-75
2024/04/16 08:17:11;;;;;;;3.25;1.00;;;;;;;6.85;100.00;97018.63;6109134;19;20354;-75
2024/04/16 08:19:11;;;;;;;3.30;0.93;;;;;;;6.84;100.00;97019.03;6108691;19;20017;-75
2024/04/16 08:21:12;;;;;;;2.45;1.10;;;;;;;6.75;100.00;97042.16;6108677;19;20608;-75
2024/04/16 08:23:12;;;;;;;1.02;0.88;;;;;;;6.69;100.00;97024.47;6109242;19;20006;-75
2024/04/16 08:25:12;;;;;;;3.00;1.10;;;;;;;6.77;100.00;97036.28;6108033;19;20023;-75
2024/04/16 08:27:13;;;;;;;1.23;0.90;;;;;;;6.76;100.00;97030.00;6108881;19;20497;-75
2024/04/16 08:29:13;;;;;;;3.85;0.98;;;;;;;6.76;100.00;97031.97;6107519;19;19999;-75
2024/04/16 08:31:13;;;;;;;3.65;1.33;;;;;;;6.73;100.00;97039.03;6105929;19;20002;-75
2024/04/16 08:33:17;;;;;;;3.15;1.08;;;;;;;6.64;100.00;97051.56;6106542;19;20051;-76
2024/04/16 08:35:25;;;;;;;1.88;0.90;;;;;;;6.63;100.00;97061.78;6106994;19;20014;-75
2024/04/16 08:37:26;;;;;;;3.03;1.20;;;;;;;6.60;100.00;97064.50;6109007;19;20352;-75
2024/04/16 08:39:26;;;;;;;2.03;1.38;;;;;;;6.69;100.00;97049.22;6106546;19;20079;-75
2024/04/16 08:41:27;;;;;;;3.22;1.20;;;;;;;6.80;100.00;97048.47;6108660;19;20330;-75
2024/04/16 08:43:31;;;;;;;3.40;1.52;;;;;;;6.87;100.00;97060.28;6108424;19;20017;-75
2024/04/16 08:45:32;;;;;;;3.75;1.00;;;;;;;7.00;100.00;97066.22;6107626;19;20372;-75
2024/04/16 08:47:33;;;;;;;4.07;1.05;;;;;;;7.23;100.00;97047.41;6107958;19;20011;-75
2024/04/16 08:49:34;;;;;;;3.67;1.77;;;;;;;7.45;100.00;97052.94;6104733;19;20090;-75
2024/04/16 08:51:36;;;;;;;2.80;1.10;;;;;;;7.54;100.00;97034.88;6106340;19;20010;-76
2024/04/16 08:53:38;;;;;;;6.43;1.20;;;;;;;7.46;100.00;97032.50;6106198;19;20124;-75
2024/04/16 08:55:41;;;;;;;2.42;0.80;;;;;;;7.28;100.00;97036.03;6106039;19;20006;-75
2024/04/16 08:57:41;;;;;;;;;;;;;;;7.24;100.00;97026.19;6107637;19;20021;-75
2024/04/16 08:59:42;;;;;;;3.35;1.65;;;;;;;7.29;100.00;97028.56;6104914;19;19997;-75
2024/04/16 09:01:50;;;;;;;2.05;0.82;;;;;;;7.24;100.00;97023.44;6106957;19;20010;-75
2024/04/16 09:03:51;;;;;;;1.92;1.00;;;;;;;7.22;100.00;97021.06;6106350;19;20021;-75
2024/04/16 09:05:51;;;;;;;1.60;1.08;;;;;;;7.31;100.00;97023.44;6105641;19;20010;-75
2024/04/16 09:07:52;;;;;;;5.13;1.58;;;;;;;7.22;100.00;97040.34;6106615;19;20007;-75
2024/04/16 09:09:52;;;;;;;2.03;0.90;;;;;;;7.35;100.00;97026.19;6107262;19;20016;-76
2024/04/16 09:11:52;;;;;;;3.20;1.05;;;;;;;7.38;100.00;97023.44;6105823;19;20007;-75
2024/04/16 09:13:55;;;;;;;2.08;1.02;;;;;;;7.41;100.00;97019.13;6110839;19;20321;-76
2024/04/16 09:15:57;;;;;;;;;;;;;;;7.56;100.00;97028.97;6111246;19;20002;-76
2024/04/16 09:17:57;;;;;;;2.35;1.00;;;;;;;7.84;100.00;97017.91;6111018;19;20484;-75
2024/04/16 09:20:01;;;;;;;4.22;1.27;;;;;;;7.89;100.00;96997.47;6112412;19;20034;-76
2024/04/16 09:22:01;;;;;;;2.45;1.13;;;;;;;7.97;100.00;97012.00;6111789;19;20074;-75
2024/04/16 09:24:05;;;;;;;2.25;0.90;;;;;;;8.04;100.00;97012.78;6112132;19;20555;-75
2024/04/16 09:26:15;;;;;;;4.70;1.20;;;;;;;8.30;100.00;97010.75;6112910;19;20438;-75
2024/04/16 09:28:17;;;;;;;3.88;1.27;;;;;;;8.66;100.00;97008.66;6112164;19;20040;-76